Time;durP1;ratioP1;P1;durP2;ratioP2;P2;SDS_P1;SDS_P2;PMS_P1;PMS_P2;Temp;Humidity;BMP_temperature;BMP_pressure;BME280_temperature;BME280_humidity;BME280_pressure;Samples;Min_cycle;Max_cycle;Signal;HPM_P1;HPM_P2
2021/11/01 00:00:07;;;;;;;;;;;14.70;99.90;14.90;98544.00;;;;347327;28;85970;-91
2021/11/01 00:00:19;;;;;;;;;;;14.70;99.90;14.70;98545.00;;;;343360;28;87036;-91
2021/11/01 00:00:32;;;;;;;;;;;14.60;99.90;14.80;98544.00;;;;346909;27;87981;-92
2021/11/01 00:00:44;;;;;;;;;;;14.70;99.90;14.80;98544.00;;;;347360;28;90891;-92
2021/11/01 00:01:00;;;;;;;;;;;14.60;99.90;14.90;98547.00;;;;345792;28;86900;-92
2021/11/01 00:01:12;;;;;;;;;;;14.70;99.90;14.90;98551.00;;;;347630;28;85884;-92
2021/11/01 00:01:24;;;;;;;;;;;14.70;99.90;15.00;98550.00;;;;350115;27;86182;-92
2021/11/01 00:01:36;;;;;;;;;;;14.60;99.90;15.00;98549.00;;;;348886;27;87439;-92
2021/11/01 00:01:48;;;;;;;;;;;14.60;99.90;14.90;98548.00;;;;348686;27;86915;-92
2021/11/01 00:02:00;;;;;;;;;;;14.60;99.90;14.90;98550.00;;;;351829;27;88793;-92
2021/11/01 00:02:13;;;;;;;;;;;14.60;99.90;14.90;98545.00;;;;348689;27;86041;-92
2021/11/01 00:02:25;;;;;;;;;;;14.60;99.90;14.90;98538.00;;;;345846;28;89787;-92
2021/11/01 00:02:37;;;;;;;;;;;14.70;99.90;14.90;98545.00;;;;347059;28;88698;-92
2021/11/01 00:02:49;;;;;;;;;;;14.60;99.90;14.80;98543.00;;;;347284;28;91329;-92
2021/11/01 00:03:01;;;;;;;;;;;14.60;99.90;14.90;98536.00;;;;345763;28;86799;-91
2021/11/01 00:03:13;;;;;;;;;;;14.60;99.90;14.90;98542.00;;;;346181;28;87779;-93
2021/11/01 00:03:25;;;;;;;;;;;14.60;99.90;15.00;98541.00;;;;344810;28;85617;-91
2021/11/01 00:03:37;;;;;;;;;;;14.60;99.90;15.00;98534.00;;;;346102;28;87337;-92
2021/11/01 00:03:49;;;;;;;;;;;14.60;99.90;15.00;98539.00;;;;345946;28;86825;-92
2021/11/01 00:04:02;;;;;;;;;;;14.60;99.90;15.00;98531.00;;;;344744;28;88977;-92
2021/11/01 00:04:14;;;;;;;;;;;14.70;99.90;14.90;98538.00;;;;344463;28;86081;-92
2021/11/01 00:04:26;;;;;;;;;;;14.70;99.90;15.00;98537.00;;;;346216;28;87669;-92
2021/11/01 00:04:40;;;;;;;;;;;14.70;99.90;14.80;98544.00;;;;345945;28;86730;-92
2021/11/01 00:04:52;;;;;;;;;;;14.60;99.90;14.70;98536.00;;;;346092;28;88151;-93
2021/11/01 00:05:04;;;;;;;;;;;14.60;99.90;14.90;98546.00;;;;346626;28;87024;-91
2021/11/01 00:05:16;;;;;;;;;;;14.60;99.90;14.90;98537.00;;;;346090;28;89231;-92
2021/11/01 00:05:28;;;;;;;;;;;14.60;99.90;14.80;98542.00;;;;344625;28;86097;-92
2021/11/01 00:05:40;;;;;;;;;;;14.60;99.90;14.80;98537.00;;;;347170;28;89004;-93
2021/11/01 00:05:51;;;;;;;;;;;14.60;99.90;14.90;98545.00;;;;345447;28;86991;-92
2021/11/01 00:06:05;;;;;;;;;;;14.60;99.90;14.90;98543.00;;;;346241;28;87093;-92
2021/11/01 00:06:17;;;;;;;;;;;14.70;99.90;14.90;98537.00;;;;345624;28;86108;-92
2021/11/01 00:06:30;;;;;;;;;;;14.60;99.90;14.90;98553.00;;;;347757;27;91225;-91
2021/11/01 00:06:42;;;;;;;;;;;14.60;99.90;14.80;98539.00;;;;347047;28;87876;-92
2021/11/01 00:06:54;;;;;;;;;;;14.60;99.90;14.80;98542.00;;;;347439;28;88924;-92
2021/11/01 00:07:05;;;;;;;;;;;14.60;99.90;14.90;98548.00;;;;348699;27;86831;-92
2021/11/01 00:07:17;;;;;;;;;;;14.60;99.90;14.90;98543.00;;;;347564;28;88767;-92
2021/11/01 00:07:29;;;;;;;;;;;14.60;99.90;15.00;98548.00;;;;345326;28;85229;-92
2021/11/01 00:07:41;;;;;;;;;;;14.60;99.90;14.70;98543.00;;;;345952;28;88925;-91
2021/11/01 00:07:53;;;;;;;;;;;14.60;99.90;14.50;98551.00;;;;344562;28;86788;-91
2021/11/01 00:08:05;;;;;;;;;;;14.60;99.90;14.50;98548.00;;;;345961;28;90977;-92
2021/11/01 00:08:17;;;;;;;;;;;14.50;99.90;14.60;98548.00;;;;345580;28;86847;-92
2021/11/01 00:08:29;;;;;;;;;;;14.50;99.90;14.60;98549.00;;;;344371;28;88335;-92
2021/11/01 00:08:41;;;;;;;;;;;14.50;99.90;14.60;98548.00;;;;347224;28;86055;-90
2021/11/01 00:08:53;;;;;;;;;;;14.40;99.90;14.70;98545.00;;;;347243;27;89755;-92
2021/11/01 00:09:05;;;;;;;;;;;14.50;99.90;14.70;98551.00;;;;347222;28;86923;-91
2021/11/01 00:09:19;;;;;;;;;;;14.50;99.90;14.70;98547.00;;;;344759;28;87890;-92
2021/11/01 00:09:32;;;;;;;;;;;14.40;99.90;14.70;98549.00;;;;345486;28;86225;-90
2021/11/01 00:09:44;;;;;;;;;;;14.40;99.90;14.70;98546.00;;;;346198;28;86509;-92
2021/11/01 00:09:56;;;;;;;;;;;14.40;99.90;14.80;98540.00;;;;345993;28;86825;-92
2021/11/01 00:10:08;;;;;;;;;;;14.50;99.90;14.80;98546.00;;;;347511;28;88206;-92
2021/11/01 00:10:20;;;;;;;;;;;14.50;99.90;14.80;98551.00;;;;344407;28;86847;-93
2021/11/01 00:10:32;;;;;;;;;;;14.50;99.90;14.80;98543.00;;;;346225;28;87153;-92
2021/11/01 00:10:43;;;;;;;;;;;14.50;99.90;14.80;98544.00;;;;347355;28;86699;-92
2021/11/01 00:10:55;;;;;;;;;;;14.50;99.90;14.80;98544.00;;;;347237;28;88665;-93
2021/11/01 00:11:07;;;;;;;;;;;14.50;99.90;14.60;98544.00;;;;345513;28;86745;-92
2021/11/01 00:11:19;;;;;;;;;;;14.50;99.90;14.60;98546.00;;;;346103;28;87523;-92
2021/11/01 00:11:31;;;;;;;;;;;14.50;99.90;14.70;98536.00;;;;343788;28;86266;-91
2021/11/01 00:11:43;;;;;;;;;;;14.40;99.90;14.60;98546.00;;;;347326;28;88589;-92
2021/11/01 00:11:55;;;;;;;;;;;14.50;99.90;14.60;98546.00;;;;345948;28;86761;-92
2021/11/01 00:12:07;;;;;;;;;;;14.40;99.90;14.70;98549.00;;;;344716;28;88788;-93
2021/11/01 00:12:19;;;;;;;;;;;14.40;99.90;14.70;98536.00;;;;345619;28;87268;-92
2021/11/01 00:12:31;;;;;;;;;;;14.50;99.90;14.70;98543.00;;;;346092;28;89480;-93
2021/11/01 00:12:44;;;;;;;;;;;14.40;99.90;14.70;98545.00;;;;346030;28;86469;-92
2021/11/01 00:12:55;;;;;;;;;;;14.40;99.90;14.70;98541.00;;;;345990;28;90493;-92
2021/11/01 00:13:07;;;;;;;;;;;14.50;99.90;14.60;98542.00;;;;347183;28;86897;-93
2021/11/01 00:13:19;;;;;;;;;;;14.40;99.90;14.60;98546.00;;;;346194;28;87322;-93
2021/11/01 00:13:31;;;;;;;;;;;14.40;99.90;14.60;98542.00;;;;345698;28;86336;-92
2021/11/01 00:13:43;;;;;;;;;;;14.40;99.90;14.60;98538.00;;;;347584;28;87395;-93
2021/11/01 00:13:55;;;;;;;;;;;14.40;99.90;14.50;98543.00;;;;347368;28;86873;-93
2021/11/01 00:14:06;;;;;;;;;;;14.40;99.90;14.60;98545.00;;;;346092;28;88664;-92
2021/11/01 00:14:18;;;;;;;;;;;14.40;99.90;14.50;98548.00;;;;344398;28;86926;-92
2021/11/01 00:14:30;;;;;;;;;;;14.40;99.90;14.60;98547.00;;;;345880;28;90526;-92
2021/11/01 00:14:42;;;;;;;;;;;14.40;99.90;14.70;98549.00;;;;347103;28;86904;-92
2021/11/01 00:14:54;;;;;;;;;;;14.40;99.90;14.60;98542.00;;;;345964;28;88314;-92
2021/11/01 00:15:07;;;;;;;;;;;14.40;99.90;14.50;98539.00;;;;345914;28;85930;-93
2021/11/01 00:15:18;;;;;;;;;;;14.40;99.90;14.60;98547.00;;;;345968;28;89792;-92
2021/11/01 00:15:30;;;;;;;;;;;14.40;99.90;14.50;98547.00;;;;345325;28;86289;-92
2021/11/01 00:15:42;;;;;;;;;;;14.30;99.90;14.40;98539.00;;;;346287;28;85103;-93
2021/11/01 00:15:54;;;;;;;;;;;14.30;99.90;14.40;98548.00;;;;347370;28;86090;-93
2021/11/01 00:16:06;;;;;;;;;;;14.30;99.90;14.40;98545.00;;;;346287;28;86141;-92
2021/11/01 00:16:18;;;;;;;;;;;14.30;99.90;14.50;98542.00;;;;344253;28;87288;-92
2021/11/01 00:16:29;;;;;;;;;;;14.30;99.90;14.50;98539.00;;;;348630;27;91322;-93
2021/11/01 00:16:42;;;;;;;;;;;14.30;99.90;14.60;98546.00;;;;345983;28;85931;-93
2021/11/01 00:16:53;;;;;;;;;;;14.30;99.90;14.60;98540.00;;;;347235;28;89772;-93
2021/11/01 00:17:05;;;;;;;;;;;14.30;99.90;14.60;98539.00;;;;347256;28;86175;-93
2021/11/01 00:17:17;;;;;;;;;;;14.30;99.90;14.50;98537.00;;;;345784;28;90452;-93
2021/11/01 00:17:29;;;;;;;;;;;14.30;99.90;14.60;98537.00;;;;346908;28;86493;-92
2021/11/01 00:17:41;;;;;;;;;;;14.30;99.90;14.60;98539.00;;;;345908;28;87977;-92
2021/11/01 00:17:53;;;;;;;;;;;14.30;99.90;14.60;98539.00;;;;347149;28;86746;-93
2021/11/01 00:18:04;;;;;;;;;;;14.30;99.90;14.60;98545.00;;;;347359;27;90685;-92
2021/11/01 00:18:17;;;;;;;;;;;14.30;99.90;14.70;98536.00;;;;345908;28;86902;-92
2021/11/01 00:18:29;;;;;;;;;;;14.30;99.90;14.70;98536.00;;;;347314;28;89371;-92
2021/11/01 00:18:41;;;;;;;;;;;14.30;99.90;14.60;98535.00;;;;347110;28;86677;-92
2021/11/01 00:18:52;;;;;;;;;;;14.30;99.90;14.50;98539.00;;;;345734;28;87397;-91
2021/11/01 00:19:04;;;;;;;;;;;14.30;99.90;14.50;98536.00;;;;348445;27;86066;-92
2021/11/01 00:19:16;;;;;;;;;;;14.30;99.90;14.60;98538.00;;;;348748;27;90757;-92
2021/11/01 00:19:28;;;;;;;;;;;14.30;99.90;14.60;98534.00;;;;347240;28;86166;-91
2021/11/01 00:19:39;;;;;;;;;;;14.30;99.90;14.70;98535.00;;;;346182;28;86398;-93
2021/11/01 00:19:52;;;;;;;;;;;14.40;99.90;14.70;98540.00;;;;345979;28;85948;-92
2021/11/01 00:20:08;;;;;;;;;;;14.40;99.90;14.60;98530.00;;;;348920;27;89153;-93
2021/11/01 00:20:21;;;;;;;;;;;14.40;99.90;14.70;98535.00;;;;348585;27;86971;-93
2021/11/01 00:20:33;;;;;;;;;;;14.40;99.90;14.70;98535.00;;;;348749;27;90578;-92
2021/11/01 00:20:45;;;;;;;;;;;14.40;99.90;14.60;98536.00;;;;346973;28;86846;-93
2021/11/01 00:20:57;;;;;;;;;;;14.40;99.90;14.60;98534.00;;;;347433;28;87589;-92
2021/11/01 00:21:09;;;;;;;;;;;14.30;99.90;14.60;98534.00;;;;347255;28;86844;-92
2021/11/01 00:21:21;;;;;;;;;;;14.40;99.90;14.70;98531.00;;;;348979;27;87431;-92
2021/11/01 00:21:33;;;;;;;;;;;14.40;99.90;14.70;98534.00;;;;346947;27;86272;-92
2021/11/01 00:21:45;;;;;;;;;;;14.40;99.90;14.70;98528.00;;;;343424;28;87955;-92
2021/11/01 00:21:57;;;;;;;;;;;14.40;99.90;14.70;98530.00;;;;347293;28;86856;-92
2021/11/01 00:22:09;;;;;;;;;;;14.40;99.90;14.60;98536.00;;;;346030;28;88553;-92
2021/11/01 00:22:21;;;;;;;;;;;14.40;99.90;14.60;98531.00;;;;345946;28;86739;-92
2021/11/01 00:22:33;;;;;;;;;;;14.40;99.90;14.70;98519.00;;;;346091;28;87135;-92
2021/11/01 00:22:45;;;;;;;;;;;14.40;99.90;14.70;98527.00;;;;344556;28;86882;-92
2021/11/01 00:22:57;;;;;;;;;;;14.40;99.90;14.70;98522.00;;;;347236;28;90916;-94
2021/11/01 00:23:09;;;;;;;;;;;14.40;99.90;14.70;98523.00;;;;348510;27;86660;-92
2021/11/01 00:23:21;;;;;;;;;;;14.40;99.90;14.70;98530.00;;;;345868;28;90390;-92
2021/11/01 00:23:32;;;;;;;;;;;14.40;99.90;14.70;98520.00;;;;344190;28;86536;-92
2021/11/01 00:23:45;;;;;;;;;;;14.40;99.90;14.60;98528.00;;;;345948;28;88719;-92
2021/11/01 00:23:56;;;;;;;;;;;14.40;99.90;14.60;98529.00;;;;345661;28;86992;-92
2021/11/01 00:24:08;;;;;;;;;;;14.40;99.90;14.70;98526.00;;;;344681;28;91595;-92
2021/11/01 00:24:20;;;;;;;;;;;14.40;99.90;14.60;98526.00;;;;344476;28;86904;-92
2021/11/01 00:24:32;;;;;;;;;;;14.40;99.90;14.70;98527.00;;;;346880;28;88802;-92
2021/11/01 00:24:44;;;;;;;;;;;14.40;99.90;14.70;98528.00;;;;345718;28;87011;-91
2021/11/01 00:24:55;;;;;;;;;;;14.40;99.90;14.60;98530.00;;;;344545;28;90939;-92
2021/11/01 00:25:08;;;;;;;;;;;14.40;99.90;14.70;98530.00;;;;345926;28;86723;-92
2021/11/01 00:25:21;;;;;;;;;;;14.40;99.90;14.70;98523.00;;;;347487;28;90926;-92
2021/11/01 00:25:32;;;;;;;;;;;14.40;99.90;14.70;98527.00;;;;344504;28;86676;-92
2021/11/01 00:25:44;;;;;;;;;;;14.40;99.90;14.70;98527.00;;;;347337;28;88015;-92
2021/11/01 00:25:56;;;;;;;;;;;14.40;99.90;14.70;98523.00;;;;345651;28;87016;-92
2021/11/01 00:26:08;;;;;;;;;;;14.40;99.90;14.70;98524.00;;;;347527;28;87574;-92
2021/11/01 00:26:20;;;;;;;;;;;14.40;99.90;14.60;98520.00;;;;345188;28;87016;-92
2021/11/01 00:26:32;;;;;;;;;;;14.40;99.90;14.70;98520.00;;;;347431;28;88910;-92
2021/11/01 00:26:45;;;;;;;;;;;14.40;99.90;14.70;98526.00;;;;348618;27;86784;-92
2021/11/01 00:26:56;;;;;;;;;;;14.40;99.90;14.60;98523.00;;;;347224;28;88121;-92
2021/11/01 00:27:08;;;;;;;;;;;14.40;99.90;14.70;98518.00;;;;347294;28;86836;-91
2021/11/01 00:27:20;;;;;;;;;;;14.40;99.90;14.70;98510.00;;;;345847;28;90802;-92
2021/11/01 00:27:33;;;;;;;;;;;14.40;99.90;14.70;98517.00;;;;346519;28;88236;-92
2021/11/01 00:27:44;;;;;;;;;;;14.40;99.90;14.60;98514.00;;;;348729;27;88491;-92
2021/11/01 00:27:56;;;;;;;;;;;14.40;99.90;14.60;98523.00;;;;344095;28;86881;-93
2021/11/01 00:28:11;;;;;;;;;;;14.40;99.90;14.70;98525.00;;;;346146;28;88882;-93
2021/11/01 00:28:22;;;;;;;;;;;14.40;99.90;14.70;98527.00;;;;347232;28;86102;-92
2021/11/01 00:28:34;;;;;;;;;;;14.40;99.90;14.70;98522.00;;;;346001;28;89163;-92
2021/11/01 00:28:48;;;;;;;;;;;14.40;99.90;14.70;98518.00;;;;344463;28;87080;-92
2021/11/01 00:29:03;;;;;;;;;;;14.40;99.90;14.70;98531.00;;;;347443;28;87592;-92
2021/11/01 00:29:15;;;;;;;;;;;14.40;99.90;14.70;98535.00;;;;347188;28;86779;-91
2021/11/01 00:29:27;;;;;;;;;;;14.40;99.90;14.70;98524.00;;;;344861;28;87178;-92
2021/11/01 00:29:39;;;;;;;;;;;14.40;99.90;14.70;98519.00;;;;345867;28;86285;-92
2021/11/01 00:29:51;;;;;;;;;;;14.40;99.90;14.70;98521.00;;;;347594;28;87975;-92
2021/11/01 00:30:06;;;;;;;;;;;14.40;99.90;14.60;98522.00;;;;348512;27;87024;-92
2021/11/01 00:30:18;;;;;;;;;;;14.40;99.90;14.60;98517.00;;;;347403;27;86270;-92
2021/11/01 00:30:30;;;;;;;;;;;14.40;99.90;14.50;98516.00;;;;346552;28;87031;-91
2021/11/01 00:30:42;;;;;;;;;;;14.40;99.90;14.50;98521.00;;;;348605;27;90837;-92
2021/11/01 00:30:57;;;;;;;;;;;14.40;99.90;14.50;98529.00;;;;346895;28;87280;-92
2021/11/01 00:31:10;;;;;;;;;;;14.40;99.90;14.50;98523.00;;;;347494;28;88407;-91
2021/11/01 00:31:22;;;;;;;;;;;14.40;99.90;14.60;98525.00;;;;348208;27;87103;-92
2021/11/01 00:31:34;;;;;;;;;;;14.30;99.90;14.50;98522.00;;;;348880;27;88263;-91
2021/11/01 00:31:46;;;;;;;;;;;14.30;99.90;14.50;98524.00;;;;347218;28;86187;-92
2021/11/01 00:31:57;;;;;;;;;;;14.30;99.90;14.60;98522.00;;;;347604;28;85539;-92
2021/11/01 00:32:10;;;;;;;;;;;14.30;99.90;14.60;98524.00;;;;345898;28;86071;-92
2021/11/01 00:32:21;;;;;;;;;;;14.30;99.90;14.60;98523.00;;;;345875;28;89057;-91
2021/11/01 00:32:33;;;;;;;;;;;14.30;99.90;14.70;98523.00;;;;345758;28;86948;-92
2021/11/01 00:32:47;;;;;;;;;;;14.30;99.90;14.60;98523.00;;;;348802;27;88876;-92
2021/11/01 00:32:58;;;;;;;;;;;14.30;99.90;14.60;98519.00;;;;344483;28;86863;-92
2021/11/01 00:33:10;;;;;;;;;;;14.30;99.90;14.60;98516.00;;;;348609;27;89532;-92
2021/11/01 00:33:23;;;;;;;;;;;14.30;99.90;14.60;98514.00;;;;348573;27;86735;-92
2021/11/01 00:33:35;;;;;;;;;;;14.30;99.90;14.60;98518.00;;;;345846;28;89642;-92
2021/11/01 00:33:47;;;;;;;;;;;14.30;99.90;14.50;98517.00;;;;345729;28;86103;-92
2021/11/01 00:33:59;;;;;;;;;;;14.30;99.90;14.60;98513.00;;;;347290;28;86684;-92
2021/11/01 00:34:10;;;;;;;;;;;14.30;99.90;14.60;98517.00;;;;347230;28;86866;-91
2021/11/01 00:34:23;;;;;;;;;;;14.30;99.90;14.60;98511.00;;;;347150;28;91311;-92
2021/11/01 00:34:35;;;;;;;;;;;14.30;99.90;14.60;98516.00;;;;345707;28;88308;-92
2021/11/01 00:34:47;;;;;;;;;;;14.30;99.90;14.70;98511.00;;;;347481;28;87458;-91
2021/11/01 00:34:59;;;;;;;;;;;14.30;99.90;14.70;98514.00;;;;348664;27;86994;-92
2021/11/01 00:35:11;;;;;;;;;;;14.30;99.90;14.60;98520.00;;;;348583;27;87660;-92
2021/11/01 00:35:22;;;;;;;;;;;14.30;99.90;14.50;98516.00;;;;346766;28;86966;-91
2021/11/01 00:35:35;;;;;;;;;;;14.30;99.90;14.60;98515.00;;;;346115;28;88315;-92
2021/11/01 00:35:49;;;;;;;;;;;14.30;99.90;14.60;98518.00;;;;346772;28;86263;-91
2021/11/01 00:36:01;;;;;;;;;;;14.30;99.90;14.70;98514.00;;;;347434;28;87986;-92
2021/11/01 00:36:13;;;;;;;;;;;14.30;99.90;14.70;98513.00;;;;344440;28;86748;-91
2021/11/01 00:36:25;;;;;;;;;;;14.30;99.90;14.70;98516.00;;;;347286;28;88487;-92
2021/11/01 00:36:37;;;;;;;;;;;14.30;99.90;14.70;98518.00;;;;346462;28;86099;-90
2021/11/01 00:36:49;;;;;;;;;;;14.30;99.90;14.70;98524.00;;;;344288;28;89801;-92
2021/11/01 00:37:01;;;;;;;;;;;14.30;99.90;14.70;98526.00;;;;344919;28;87419;-92
2021/11/01 00:37:13;;;;;;;;;;;14.40;99.90;14.70;98520.00;;;;337769;28;90013;-91
2021/11/01 00:37:26;;;;;;;;;;;14.30;99.90;14.70;98518.00;;;;337248;28;87152;-92
2021/11/01 00:37:37;;;;;;;;;;;14.40;99.90;14.70;98522.00;;;;339071;28;87238;-91
2021/11/01 00:37:49;;;;;;;;;;;14.40;99.90;14.60;98528.00;;;;337632;28;85350;-92
2021/11/01 00:38:01;;;;;;;;;;;14.30;99.90;14.50;98524.00;;;;336473;28;88119;-92
2021/11/01 00:38:13;;;;;;;;;;;14.30;99.90;14.60;98526.00;;;;337292;28;86166;-92
2021/11/01 00:38:25;;;;;;;;;;;14.40;99.90;14.60;98524.00;;;;338979;28;88721;-91
2021/11/01 00:38:36;;;;;;;;;;;14.30;99.90;14.70;98519.00;;;;337639;28;85897;-91
2021/11/01 00:38:48;;;;;;;;;;;14.30;99.90;14.70;98537.00;;;;337840;28;88894;-92
2021/11/01 00:39:00;;;;;;;;;;;14.40;99.90;14.80;98531.00;;;;337452;28;86969;-92
2021/11/01 00:39:12;;;;;;;;;;;14.40;99.90;14.70;98538.00;;;;336457;28;88794;-92
2021/11/01 00:39:24;;;;;;;;;;;14.40;99.90;14.70;98531.00;;;;336171;28;86110;-91
2021/11/01 00:39:36;;;;;;;;;;;14.40;99.90;14.70;98543.00;;;;337140;28;87656;-92
2021/11/01 00:39:48;;;;;;;;;;;14.40;99.90;14.40;98535.00;;;;337214;28;86727;-92
2021/11/01 00:40:00;;;;;;;;;;;14.40;99.90;14.60;98541.00;;;;338436;28;86354;-91
2021/11/01 00:40:12;;;;;;;;;;;14.40;99.90;14.60;98535.00;;;;337367;28;87084;-92
2021/11/01 00:40:24;;;;;;;;;;;14.40;99.90;14.70;98541.00;;;;339094;28;87571;-92
2021/11/01 00:40:38;;;;;;;;;;;14.40;99.90;14.70;98541.00;;;;338503;28;88178;-92
2021/11/01 00:40:49;;;;;;;;;;;14.40;99.90;14.60;98544.00;;;;336528;28;87092;-92
2021/11/01 00:41:01;;;;;;;;;;;14.40;99.90;14.50;98547.00;;;;340233;28;86017;-92
2021/11/01 00:41:15;;;;;;;;;;;14.30;99.90;14.60;98549.00;;;;339125;28;88897;-92
2021/11/01 00:41:26;;;;;;;;;;;14.40;99.90;14.50;98538.00;;;;340246;28;85983;-92
2021/11/01 00:41:38;;;;;;;;;;;14.30;99.90;14.60;98543.00;;;;338881;28;90012;-92
2021/11/01 00:41:51;;;;;;;;;;;14.40;99.90;14.50;98549.00;;;;338718;28;86973;-92
2021/11/01 00:42:04;;;;;;;;;;;14.30;99.90;14.60;98548.00;;;;339268;28;86900;-92
2021/11/01 00:42:16;;;;;;;;;;;14.30;99.90;14.60;98537.00;;;;338900;28;86446;-92
2021/11/01 00:42:28;;;;;;;;;;;14.30;99.90;14.50;98545.00;;;;339102;28;89729;-92
2021/11/01 00:42:39;;;;;;;;;;;14.30;99.90;14.60;98546.00;;;;340050;28;86827;-92
2021/11/01 00:42:51;;;;;;;;;;;14.30;99.90;14.50;98547.00;;;;337714;28;86120;-92
2021/11/01 00:43:03;;;;;;;;;;;14.30;99.90;14.50;98541.00;;;;338959;28;87134;-92
2021/11/01 00:43:15;;;;;;;;;;;14.30;99.90;14.60;98545.00;;;;338587;28;87554;-92
2021/11/01 00:43:27;;;;;;;;;;;14.30;99.90;14.70;98542.00;;;;340208;28;86052;-92
2021/11/01 00:43:39;;;;;;;;;;;14.30;99.90;14.70;98536.00;;;;338871;28;89695;-93
2021/11/01 00:43:50;;;;;;;;;;;14.30;99.90;14.70;98537.00;;;;341619;28;85813;-92
2021/11/01 00:44:03;;;;;;;;;;;14.30;99.90;14.60;98542.00;;;;341741;28;88427;-92
2021/11/01 00:44:14;;;;;;;;;;;14.30;99.90;14.70;98537.00;;;;340214;28;86850;-92
2021/11/01 00:44:27;;;;;;;;;;;14.30;99.90;14.70;98538.00;;;;341782;28;90635;-92
2021/11/01 00:44:38;;;;;;;;;;;14.30;99.90;14.60;98539.00;;;;338734;28;87507;-92
2021/11/01 00:44:50;;;;;;;;;;;14.30;99.90;14.70;98539.00;;;;341759;28;89482;-91
2021/11/01 00:45:03;;;;;;;;;;;14.30;99.90;14.60;98545.00;;;;338684;28;86608;-92
2021/11/01 00:45:15;;;;;;;;;;;14.30;99.90;14.70;98537.00;;;;337796;28;88948;-92
2021/11/01 00:45:26;;;;;;;;;;;14.30;99.90;14.60;98542.00;;;;338539;28;86977;-92
2021/11/01 00:45:39;;;;;;;;;;;14.30;99.90;14.60;98542.00;;;;338038;28;86647;-93
2021/11/01 00:45:50;;;;;;;;;;;14.30;99.90;14.60;98545.00;;;;336227;28;85394;-93
2021/11/01 00:46:02;;;;;;;;;;;14.30;99.90;14.60;98553.00;;;;339148;28;87311;-92
2021/11/01 00:46:15;;;;;;;;;;;14.30;99.90;14.50;98545.00;;;;336300;28;86077;-92
2021/11/01 00:46:28;;;;;;;;;;;14.30;99.90;14.60;98545.00;;;;339267;28;87054;-92
2021/11/01 00:46:40;;;;;;;;;;;14.30;99.90;14.50;98550.00;;;;337581;28;86815;-92
2021/11/01 00:46:52;;;;;;;;;;;14.30;99.90;14.40;98548.00;;;;339236;28;86257;-92
2021/11/01 00:47:04;;;;;;;;;;;14.30;99.90;14.30;98555.00;;;;338935;28;86738;-92
2021/11/01 00:47:16;;;;;;;;;;;14.30;99.90;14.30;98547.00;;;;340529;28;89384;-92
2021/11/01 00:47:28;;;;;;;;;;;14.30;99.90;14.40;98550.00;;;;338969;28;86004;-91
2021/11/01 00:47:40;;;;;;;;;;;14.20;99.90;14.40;98551.00;;;;337813;28;86645;-92
2021/11/01 00:47:51;;;;;;;;;;;14.20;99.90;14.50;98545.00;;;;337620;28;85920;-91
2021/11/01 00:48:04;;;;;;;;;;;14.20;99.90;14.50;98545.00;;;;340004;28;86862;-92
2021/11/01 00:48:16;;;;;;;;;;;14.20;99.90;14.40;98547.00;;;;338844;28;86833;-92
2021/11/01 00:48:27;;;;;;;;;;;14.20;99.90;14.30;98552.00;;;;339479;28;88818;-91
2021/11/01 00:48:39;;;;;;;;;;;14.20;99.90;14.30;98542.00;;;;338828;28;86949;-92
2021/11/01 00:48:51;;;;;;;;;;;14.20;99.90;14.40;98536.00;;;;340477;28;87258;-92
2021/11/01 00:49:04;;;;;;;;;;;14.20;99.90;14.50;98543.00;;;;341568;28;86945;-92
2021/11/01 00:49:15;;;;;;;;;;;14.20;99.90;14.60;98542.00;;;;340412;28;89564;-92
2021/11/01 00:49:27;;;;;;;;;;;14.20;99.90;14.60;98540.00;;;;337422;28;86871;-92
2021/11/01 00:49:39;;;;;;;;;;;14.20;99.90;14.60;98542.00;;;;336302;28;88116;-92
2021/11/01 00:49:52;;;;;;;;;;;14.20;99.90;14.60;98544.00;;;;338767;28;85351;-91
2021/11/01 00:50:04;;;;;;;;;;;14.20;99.90;14.60;98537.00;;;;340480;28;88346;-92
2021/11/01 00:50:16;;;;;;;;;;;14.20;99.90;14.60;98539.00;;;;338618;28;87085;-92
2021/11/01 00:50:28;;;;;;;;;;;14.30;99.90;14.60;98541.00;;;;337721;28;89467;-92
2021/11/01 00:50:41;;;;;;;;;;;14.30;99.90;14.60;98537.00;;;;338110;28;87053;-92
2021/11/01 00:50:53;;;;;;;;;;;14.30;99.90;14.60;98540.00;;;;338900;28;90871;-91
2021/11/01 00:51:05;;;;;;;;;;;14.30;99.90;14.60;98527.00;;;;337494;28;86924;-92
2021/11/01 00:51:17;;;;;;;;;;;14.20;99.90;14.50;98531.00;;;;339104;28;89009;-92
2021/11/01 00:51:29;;;;;;;;;;;14.20;99.90;14.60;98538.00;;;;339170;28;87378;-91
2021/11/01 00:51:42;;;;;;;;;;;14.20;99.90;14.60;98527.00;;;;337659;28;89460;-92
2021/11/01 00:51:55;;;;;;;;;;;14.20;99.90;14.60;98531.00;;;;337479;28;89082;-92
2021/11/01 00:52:08;;;;;;;;;;;14.20;99.90;14.60;98529.00;;;;337909;28;87860;-92
2021/11/01 00:52:25;;;;;;;;;;;14.20;99.90;14.60;98534.00;;;;338694;28;86971;-92
2021/11/01 00:52:37;;;;;;;;;;;14.20;99.90;14.60;98542.00;;;;341819;28;86699;-92
2021/11/01 00:52:49;;;;;;;;;;;14.30;99.90;14.70;98527.00;;;;338914;28;87297;-92
2021/11/01 00:53:01;;;;;;;;;;;14.30;99.90;14.60;98528.00;;;;339051;28;89652;-91
2021/11/01 00:53:13;;;;;;;;;;;14.20;99.90;14.50;98537.00;;;;339934;28;87040;-92
2021/11/01 00:53:30;;;;;;;;;;;14.30;99.90;14.60;98530.00;;;;337830;28;87696;-91
2021/11/01 00:53:47;;;;;;;;;;;14.20;99.90;14.50;98535.00;;;;340021;28;86832;-91
2021/11/01 00:54:00;;;;;;;;;;;14.30;99.90;14.60;98541.00;;;;341554;28;89996;-92
2021/11/01 00:54:12;;;;;;;;;;;14.20;99.90;14.60;98535.00;;;;337595;28;85897;-92
2021/11/01 00:54:24;;;;;;;;;;;14.30;99.90;14.60;98531.00;;;;337762;28;86919;-91
2021/11/01 00:54:36;;;;;;;;;;;14.20;99.90;14.70;98531.00;;;;338903;28;86864;-92
2021/11/01 00:54:49;;;;;;;;;;;14.30;99.90;14.60;98526.00;;;;341827;28;88533;-92
2021/11/01 00:55:04;;;;;;;;;;;14.30;99.90;14.60;98527.00;;;;339572;28;87128;-91
2021/11/01 00:55:33;;;;;;;;;;;14.30;99.90;14.40;98527.00;;;;338959;28;91446;-91
2021/11/01 00:55:52;;;;;;;;;;;14.20;99.90;14.60;98535.00;;;;340251;28;86820;-92
2021/11/01 00:56:04;;;;;;;;;;;14.30;99.90;14.60;98528.00;;;;339166;28;87052;-92
2021/11/01 00:56:17;;;;;;;;;;;14.20;99.90;14.60;98537.00;;;;337556;28;86694;-92
2021/11/01 00:56:28;;;;;;;;;;;14.30;99.90;14.60;98530.00;;;;345960;28;91224;-91
2021/11/01 00:56:40;;;;;;;;;;;14.30;99.90;14.60;98524.00;;;;344459;28;86020;-92
2021/11/01 00:56:52;;;;;;;;;;;14.30;99.90;14.60;98531.00;;;;339023;28;90406;-92
2021/11/01 00:57:04;;;;;;;;;;;14.20;99.90;14.60;98529.00;;;;337611;28;86020;-91
2021/11/01 00:57:16;;;;;;;;;;;14.20;99.90;14.60;98526.00;;;;339042;28;91661;-91
2021/11/01 00:57:28;;;;;;;;;;;14.30;99.90;14.50;98526.00;;;;338552;28;86847;-91
2021/11/01 00:57:40;;;;;;;;;;;14.30;99.90;14.50;98527.00;;;;337812;28;87656;-91
2021/11/01 00:57:52;;;;;;;;;;;14.20;99.90;14.50;98525.00;;;;337574;28;86701;-91
2021/11/01 00:58:04;;;;;;;;;;;14.20;99.90;14.60;98525.00;;;;344585;28;90698;-92
2021/11/01 00:58:17;;;;;;;;;;;14.20;99.90;14.60;98523.00;;;;345608;28;87845;-92
2021/11/01 00:58:29;;;;;;;;;;;14.20;99.90;14.60;98534.00;;;;344712;28;88763;-92
2021/11/01 00:58:41;;;;;;;;;;;14.30;99.90;14.60;98528.00;;;;338111;28;85474;-92
2021/11/01 00:58:53;;;;;;;;;;;14.30;99.90;14.60;98534.00;;;;336982;28;87123;-91
2021/11/01 00:59:05;;;;;;;;;;;14.30;99.90;14.60;98537.00;;;;339998;28;87046;-92
2021/11/01 00:59:17;;;;;;;;;;;14.30;99.90;14.60;98528.00;;;;345890;28;90636;-91
2021/11/01 00:59:29;;;;;;;;;;;14.30;99.90;14.60;98530.00;;;;345880;28;86841;-92
2021/11/01 00:59:41;;;;;;;;;;;14.30;99.90;14.60;98538.00;;;;339113;28;89593;-92
2021/11/01 00:59:53;;;;;;;;;;;14.30;99.90;14.60;98528.00;;;;338835;28;86737;-90
2021/11/01 01:00:05;;;;;;;;;;;14.30;99.90;14.60;98527.00;;;;339117;28;88171;-92
2021/11/01 01:00:18;;;;;;;;;;;14.30;99.90;14.60;98534.00;;;;336276;28;85898;-92
2021/11/01 01:00:30;;;;;;;;;;;14.30;99.90;14.60;98536.00;;;;340168;28;88931;-92
2021/11/01 01:00:42;;;;;;;;;;;14.30;99.90;14.50;98531.00;;;;337354;28;86514;-92